Time;durP1;ratioP1;P1;durP2;ratioP2;P2;SDS_P1;SDS_P2;PMS_P1;PMS_P2;Temp;Humidity;BMP_temperature;BMP_pressure;BME280_temperature;BME280_humidity;BME280_pressure;Samples;Min_cycle;Max_cycle;Signal;HPM_P1;HPM_P2
2023/03/26 00:01:28;;;;;;;;;;;;;;;-142.75;100.00;76676.59;5028236;28;19917;-66
2023/03/26 00:03:54;;;;;;;;;;;;;;;-142.75;100.00;76670.69;5020645;28;19917;-67
2023/03/26 00:06:29;;;;;;;;;;;;;;;-142.75;100.00;76678.56;5010333;28;19944;-66
2023/03/26 00:08:56;;;;;;;;;;;;;;;-142.75;100.00;76676.59;5024240;28;20380;-67
2023/03/26 00:11:22;;;;;;;;;;;;;;;-142.75;100.00;76684.47;5031232;28;20384;-67
2023/03/26 00:13:47;;;;;;;;;;;;;;;-142.75;100.00;76672.66;5013642;28;20020;-67
2023/03/26 00:16:14;;;;;;;;;;;;;;;-142.75;100.00;76668.72;5005846;28;19968;-67
2023/03/26 00:18:41;;;;;;;;;;;;;;;-142.75;100.00;76660.84;5019143;28;20008;-67
2023/03/26 00:21:07;;;;;;;;;;;;;;;-142.75;100.00;76649.03;5031047;28;19967;-65
2023/03/26 00:23:34;;;;;;;;;;;;;;;-142.75;100.00;76652.97;5013530;28;20003;-66
2023/03/26 00:26:00;;;;;;;;;;;;;;;-142.75;100.00;76654.94;5026125;28;19932;-67
2023/03/26 00:28:26;;;;;;;;;;;;;;;-142.75;100.00;76649.03;5021675;28;20456;-67
2023/03/26 00:31:00;;;;;;;;;;;;;;;-142.75;100.00;76649.03;5030099;28;19918;-67
2023/03/26 00:33:26;;;;;;;;;;;;;;;-142.75;100.00;76643.13;5022812;28;19914;-67
2023/03/26 00:35:57;;;;;;;;;;;;;;;-142.75;100.00;76635.25;4994220;28;19920;-66
2023/03/26 00:38:23;;;;;;;;;;;;;;;-142.75;100.00;76647.06;5019759;28;20369;-67
2023/03/26 00:40:49;;;;;;;;;;;;;;;-142.75;100.00;76623.44;5020074;28;19923;-68
2023/03/26 00:43:18;;;;;;;;;;;;;;;-142.75;100.00;76619.50;5031942;28;19913;-67
2023/03/26 00:45:50;;;;;;;;;;;;;;;-142.75;100.00;76623.44;5031526;28;19917;-65
2023/03/26 00:48:16;;;;;;;;;;;;;;;-142.75;100.00;76619.50;5027309;28;19926;-67
2023/03/26 00:50:42;;;;;;;;;;;;;;;-142.75;100.00;76615.56;5002789;28;19918;-67
2023/03/26 00:53:10;;;;;;;;;;;;;;;-142.75;100.00;76613.59;5021489;28;20012;-66
2023/03/26 00:55:36;;;;;;;;;;;;;;;-142.75;100.00;76621.47;5022277;28;19953;-66
2023/03/26 00:58:01;;;;;;;;;;;;;;;-142.75;100.00;76629.34;5019833;28;19956;-67
2023/03/26 01:00:28;;;;;;;;;;;;;;;-142.75;100.00;76621.47;5013774;28;20016;-66
2023/03/26 01:02:54;;;;;;;;;;;;;;;-142.75;100.00;76641.16;5011916;28;19921;-67
2023/03/26 01:05:32;;;;;;;;;;;;;;;-142.75;100.00;76637.22;5011578;28;19980;-67
2023/03/26 01:07:58;;;;;;;;;;;;;;;-142.75;100.00;76629.34;5011857;28;19921;-67
2023/03/26 01:10:24;;;;;;;;;;;;;;;-142.75;100.00;76637.22;5011964;28;19914;-67
2023/03/26 01:12:49;;;;;;;;;;;;;;;-142.75;100.00;76631.31;5011813;28;19913;-66
2023/03/26 01:15:15;;;;;;;;;;;;;;;-142.75;100.00;76643.13;5011676;28;20293;-67
2023/03/26 01:17:41;;;;;;;;;;;;;;;-142.75;100.00;76637.22;5011869;28;19917;-66
2023/03/26 01:20:18;;;;;;;;;;;;;;;-142.75;100.00;76641.16;5015456;28;19921;-67
2023/03/26 01:22:49;;;;;;;;;;;;;;;-142.75;100.00;76637.22;5015327;28;19918;-66
2023/03/26 01:25:15;;;;;;;;;;;;;;;-142.75;100.00;76652.97;5015098;28;19925;-68
2023/03/26 01:27:43;;;;;;;;;;;;;;;-142.75;100.00;76647.06;5015325;28;19971;-65
2023/03/26 01:30:36;;;;;;;;;;;;;;;-142.75;100.00;76643.13;4997572;28;19921;-67
2023/03/26 01:33:06;;;;;;;;;;;;;;;-142.75;100.00;76637.22;5015195;28;19943;-67
2023/03/26 01:35:34;;;;;;;;;;;;;;;-142.75;100.00;76627.38;5015002;28;19928;-67
2023/03/26 01:38:12;;;;;;;;;;;;;;;-142.75;100.00;76615.56;4997172;28;19927;-66
2023/03/26 01:40:45;;;;;;;;;;;;;;;-142.75;100.00;76617.53;5015242;28;20274;-67
2023/03/26 01:43:26;;;;;;;;;;;;;;;-142.75;100.00;76609.66;4997432;28;19913;-66
2023/03/26 01:45:52;;;;;;;;;;;;;;;-142.75;100.00;76625.41;5014844;28;19921;-67
2023/03/26 01:48:17;;;;;;;;;;;;;;;-142.75;100.00;76613.59;5014819;28;20075;-67
2023/03/26 01:50:42;;;;;;;;;;;;;;;-142.75;100.00;76597.84;4997340;28;19920;-67
2023/03/26 01:53:10;;;;;;;;;;;;;;;-142.75;100.00;76605.72;5014849;28;20388;-67
2023/03/26 01:55:42;;;;;;;;;;;;;;;-142.75;100.00;76603.75;5014594;28;19963;-67
2023/03/26 01:58:12;;;;;;;;;;;;;;;-142.75;100.00;76609.66;5014607;28;20389;-67
2023/03/26 02:01:00;;;;;;;;;;;;;;;-142.75;100.00;76617.53;5014663;28;19914;-67
2023/03/26 02:03:26;;;;;;;;;;;;;;;-142.75;100.00;76607.69;4961068;28;19996;-67
2023/03/26 02:05:56;;;;;;;;;;;;;;;-142.75;100.00;76603.75;5014540;28;19992;-67
2023/03/26 02:08:34;;;;;;;;;;;;;;;-142.75;100.00;76611.63;4996810;28;19924;-67
2023/03/26 02:11:01;;;;;;;;;;;;;;;-142.75;100.00;76609.66;5014510;28;19925;-67
2023/03/26 02:13:26;;;;;;;;;;;;;;;-142.75;100.00;76617.53;5014528;28;19914;-67
2023/03/26 02:15:59;;;;;;;;;;;;;;;-142.75;100.00;76615.56;5014241;28;19936;-68
2023/03/26 02:18:24;;;;;;;;;;;;;;;-142.75;100.00;76603.75;5014301;28;19937;-67
2023/03/26 02:20:51;;;;;;;;;;;;;;;-142.75;100.00;76599.81;5014264;28;20369;-67
2023/03/26 02:23:17;;;;;;;;;;;;;;;-142.75;100.00;76593.91;5014348;28;19913;-67
2023/03/26 02:25:42;;;;;;;;;;;;;;;-142.75;100.00;76591.94;5013796;28;20004;-67
2023/03/26 02:28:08;;;;;;;;;;;;;;;-142.75;100.00;76593.91;5014161;28;19952;-67
2023/03/26 02:30:33;;;;;;;;;;;;;;;-142.75;100.00;76586.03;5013174;28;19967;-67
2023/03/26 02:32:58;;;;;;;;;;;;;;;-142.75;100.00;76591.94;5014108;28;19917;-67
2023/03/26 02:35:24;;;;;;;;;;;;;;;-142.75;100.00;76578.16;5013842;28;20348;-67
2023/03/26 02:37:49;;;;;;;;;;;;;;;-142.75;100.00;76588.00;5013888;28;19918;-66
2023/03/26 02:40:16;;;;;;;;;;;;;;;-142.75;100.00;76586.03;4996337;28;19913;-67
2023/03/26 02:42:41;;;;;;;;;;;;;;;-142.75;100.00;76570.28;5013788;28;20015;-67
2023/03/26 02:45:06;;;;;;;;;;;;;;;-142.75;100.00;76570.28;5013777;28;20349;-67
2023/03/26 02:47:32;;;;;;;;;;;;;;;-142.75;100.00;76566.34;5013754;28;19920;-67
2023/03/26 02:49:57;;;;;;;;;;;;;;;-142.75;100.00;76574.22;5013786;28;19955;-67
2023/03/26 02:52:23;;;;;;;;;;;;;;;-142.75;100.00;76572.25;4995963;28;19920;-67
2023/03/26 02:54:48;;;;;;;;;;;;;;;-142.75;100.00;76568.31;5013604;28;19913;-67
2023/03/26 02:57:13;;;;;;;;;;;;;;;-142.75;100.00;76574.22;4996048;28;19913;-67
2023/03/26 02:59:38;;;;;;;;;;;;;;;-142.75;100.00;76578.16;5013634;28;19921;-67
2023/03/26 03:02:04;;;;;;;;;;;;;;;-142.75;100.00;76580.13;5013504;28;19914;-67
2023/03/26 03:04:29;;;;;;;;;;;;;;;-142.75;100.00;76593.91;5013320;28;19917;-67
2023/03/26 03:06:56;;;;;;;;;;;;;;;-142.75;100.00;76609.66;5013559;28;20378;-67
2023/03/26 03:09:22;;;;;;;;;;;;;;;-142.75;100.00;76613.59;4995625;28;19939;-67
2023/03/26 03:11:47;;;;;;;;;;;;;;;-142.75;100.00;76609.66;5013445;28;20369;-67
2023/03/26 03:14:12;;;;;;;;;;;;;;;-142.75;100.00;76605.72;5013264;28;20316;-67
2023/03/26 03:16:37;;;;;;;;;;;;;;;-142.75;100.00;76593.91;5013315;28;20381;-67
2023/03/26 03:19:04;;;;;;;;;;;;;;;-142.75;100.00;76584.06;5013111;28;19913;-67
2023/03/26 03:21:30;;;;;;;;;;;;;;;-142.75;100.00;76572.25;5013136;28;20381;-67
2023/03/26 03:23:55;;;;;;;;;;;;;;;-142.75;100.00;76605.72;5013062;28;19917;-67
2023/03/26 03:26:22;;;;;;;;;;;;;;;-142.75;100.00;76593.91;5013156;28;20007;-67
2023/03/26 03:28:48;;;;;;;;;;;;;;;-142.75;100.00;76578.16;5012876;28;20381;-67
2023/03/26 03:31:13;;;;;;;;;;;;;;;-142.75;100.00;76564.38;5013021;28;19952;-67
2023/03/26 03:33:41;;;;;;;;;;;;;;;-142.75;100.00;76566.34;5012859;28;20033;-67
2023/03/26 03:36:09;;;;;;;;;;;;;;;-142.75;100.00;76562.41;5013012;28;20370;-67
2023/03/26 03:38:35;;;;;;;;;;;;;;;-142.75;100.00;76558.47;5012646;28;19964;-67
2023/03/26 03:41:00;;;;;;;;;;;;;;;-142.75;100.00;76550.59;4994787;28;19913;-67
2023/03/26 03:43:26;;;;;;;;;;;;;;;-142.75;100.00;76552.56;4995228;28;19913;-67
2023/03/26 03:45:51;;;;;;;;;;;;;;;-142.75;100.00;76554.53;5012537;28;19922;-68
2023/03/26 03:48:17;;;;;;;;;;;;;;;-142.75;100.00;76554.53;5012653;28;19913;-67
2023/03/26 03:50:43;;;;;;;;;;;;;;;-142.75;100.00;76546.66;5012735;28;19937;-66
2023/03/26 03:53:08;;;;;;;;;;;;;;;-142.75;100.00;76554.53;5012704;28;19913;-66
2023/03/26 03:55:37;;;;;;;;;;;;;;;-142.75;100.00;76560.44;5012496;28;20012;-67
2023/03/26 03:58:02;;;;;;;;;;;;;;;-142.75;100.00;76560.44;5012536;28;19937;-67
2023/03/26 04:00:29;;;;;;;;;;;;;;;-142.75;100.00;76542.72;5012860;28;19914;-68
2023/03/26 04:02:55;;;;;;;;;;;;;;;-142.75;100.00;76548.63;5012499;28;20308;-67
2023/03/26 04:05:20;;;;;;;;;;;;;;;-142.75;100.00;76540.75;4994780;28;19918;-67
2023/03/26 04:07:45;;;;;;;;;;;;;;;-142.75;100.00;76538.78;5012478;28;20347;-67
2023/03/26 04:10:13;;;;;;;;;;;;;;;-142.75;100.00;76552.56;5012642;28;20351;-67
2023/03/26 04:12:38;;;;;;;;;;;;;;;-142.75;100.00;76548.63;4994671;28;19913;-67
2023/03/26 04:15:04;;;;;;;;;;;;;;;-142.75;100.00;76544.69;5012392;28;19975;-67
2023/03/26 04:17:29;;;;;;;;;;;;;;;-142.75;100.00;76552.56;5012369;28;19920;-67
2023/03/26 04:19:54;;;;;;;;;;;;;;;-142.75;100.00;76532.88;4994948;28;19920;-67
2023/03/26 04:22:20;;;;;;;;;;;;;;;-142.75;100.00;76538.78;5012350;28;19999;-66
2023/03/26 04:24:48;;;;;;;;;;;;;;;-142.75;100.00;76544.69;5012193;28;19918;-67
2023/03/26 04:27:16;;;;;;;;;;;;;;;-142.75;100.00;76544.69;4994492;28;20004;-67
2023/03/26 04:29:43;;;;;;;;;;;;;;;-142.75;100.00;76548.63;5012404;28;19971;-66
2023/03/26 04:32:14;;;;;;;;;;;;;;;-142.75;100.00;76534.84;5012123;28;19920;-67
2023/03/26 04:34:44;;;;;;;;;;;;;;;-142.75;100.00;76538.78;5014840;28;19914;-66
2023/03/26 04:37:15;;;;;;;;;;;;;;;-142.75;100.00;76521.09;5051509;28;20307;-67
2023/03/26 04:39:40;;;;;;;;;;;;;;;-142.75;100.00;76530.91;5051841;28;19928;-67
2023/03/26 04:42:08;;;;;;;;;;;;;;;-142.75;100.00;76532.88;5051758;28;19913;-67
2023/03/26 04:44:33;;;;;;;;;;;;;;;-142.75;100.00;76523.06;5051816;28;20304;-67
2023/03/26 04:46:59;;;;;;;;;;;;;;;-142.75;100.00;76491.56;5051799;28;19913;-66
2023/03/26 04:49:24;;;;;;;;;;;;;;;-142.75;100.00;76487.63;5051538;28;19913;-67
2023/03/26 04:51:49;;;;;;;;;;;;;;;-142.75;100.00;76499.44;5051645;28;19912;-67
2023/03/26 04:54:16;;;;;;;;;;;;;;;-142.75;100.00;76495.50;5054395;28;19920;-67
2023/03/26 04:56:56;;;;;;;;;;;;;;;-142.75;100.00;76525.03;5055599;28;19913;-66
2023/03/26 04:59:25;;;;;;;;;;;;;;;-142.75;100.00;76511.25;5055446;28;19938;-66
2023/03/26 05:01:51;;;;;;;;;;;;;;;-142.75;100.00;76505.34;5054746;28;19963;-66
2023/03/26 05:04:16;;;;;;;;;;;;;;;-142.75;100.00;76499.44;5035554;28;19925;-66
2023/03/26 05:06:42;;;;;;;;;;;;;;;-142.75;100.00;76503.38;5035598;28;19913;-65
2023/03/26 05:09:09;;;;;;;;;;;;;;;-142.75;100.00;76515.19;5035421;28;19913;-67
2023/03/26 05:11:34;;;;;;;;;;;;;;;-142.75;100.00;76521.09;5035262;28;20321;-66
2023/03/26 05:13:59;;;;;;;;;;;;;;;-142.75;100.00;76507.31;5035270;28;19968;-67
2023/03/26 05:16:25;;;;;;;;;;;;;;;-142.75;100.00;76487.63;5035313;28;20412;-66
2023/03/26 05:18:50;;;;;;;;;;;;;;;-142.75;100.00;76509.28;5035129;28;19917;-67
2023/03/26 05:21:15;;;;;;;;;;;;;;;-142.75;100.00;76517.16;5017611;28;19913;-66
2023/03/26 05:23:41;;;;;;;;;;;;;;;-142.75;100.00;76515.19;5035008;28;20281;-65
2023/03/26 05:26:07;;;;;;;;;;;;;;;-142.75;100.00;76515.19;5017172;28;20444;-67
2023/03/26 05:28:33;;;;;;;;;;;;;;;-142.75;100.00;76519.13;5035039;28;19913;-67
2023/03/26 05:30:59;;;;;;;;;;;;;;;-142.75;100.00;76523.06;5017209;28;20019;-66
2023/03/26 05:33:25;;;;;;;;;;;;;;;-142.75;100.00;76542.72;5017235;28;19913;-66
2023/03/26 05:36:00;;;;;;;;;;;;;;;-142.75;100.00;76519.13;5034826;28;19917;-66
2023/03/26 05:38:27;;;;;;;;;;;;;;;-142.75;100.00;76542.72;5034564;28;19917;-66
2023/03/26 05:40:56;;;;;;;;;;;;;;;-142.75;100.00;76523.06;5017010;28;19959;-66
2023/03/26 05:43:21;;;;;;;;;;;;;;;-142.75;100.00;76532.88;5034829;28;20400;-66
2023/03/26 05:45:46;;;;;;;;;;;;;;;-142.75;100.00;76527.00;5034522;28;20012;-66
2023/03/26 05:48:11;;;;;;;;;;;;;;;-142.75;100.00;76523.06;5034684;28;20063;-66
2023/03/26 05:50:37;;;;;;;;;;;;;;;-142.75;100.00;76509.28;5034741;28;19920;-66
2023/03/26 05:53:02;;;;;;;;;;;;;;;-142.75;100.00;76505.34;5034499;28;19959;-67
2023/03/26 05:55:27;;;;;;;;;;;;;;;-142.75;100.00;76507.31;5034416;28;20003;-64
2023/03/26 05:57:53;;;;;;;;;;;;;;;-142.75;100.00;76509.28;5016787;28;19913;-66
2023/03/26 06:00:18;;;;;;;;;;;;;;;-142.75;100.00;76491.56;5034584;28;20343;-66
2023/03/26 06:02:43;;;;;;;;;;;;;;;-142.75;100.00;76501.41;5034578;28;19913;-66
2023/03/26 06:05:08;;;;;;;;;;;;;;;-142.75;100.00;76499.44;5034191;28;19924;-66
2023/03/26 06:07:34;;;;;;;;;;;;;;;-142.75;100.00;76499.44;5034198;28;19921;-66
2023/03/26 06:09:59;;;;;;;;;;;;;;;-142.75;100.00;76493.53;5016406;28;19913;-66
2023/03/26 06:12:25;;;;;;;;;;;;;;;-142.75;100.00;76495.50;5034255;28;19957;-66
2023/03/26 06:14:50;;;;;;;;;;;;;;;-142.75;100.00;76503.38;5034083;28;20131;-66
2023/03/26 06:17:15;;;;;;;;;;;;;;;-142.75;100.00;76503.38;5034128;28;19913;-68
2023/03/26 06:19:40;;;;;;;;;;;;;;;-142.75;100.00;76491.56;5016369;28;19917;-65
2023/03/26 06:22:06;;;;;;;;;;;;;;;-142.75;100.00;76497.47;5016221;28;19913;-67
2023/03/26 06:24:31;;;;;;;;;;;;;;;-142.75;100.00;76491.56;5033693;28;19917;-66
2023/03/26 06:26:56;;;;;;;;;;;;;;;-142.75;100.00;76481.72;5033978;28;19916;-67
2023/03/26 06:29:22;;;;;;;;;;;;;;;-142.75;100.00;76479.75;5033899;28;19920;-66
2023/03/26 06:31:47;;;;;;;;;;;;;;;-142.75;100.00;76464.00;5033667;28;19920;-66
2023/03/26 06:34:12;;;;;;;;;;;;;;;-142.75;100.00;76456.13;5046100;23;19928;-67
2023/03/26 06:36:37;;;;;;;;;;;;;;;-142.75;100.00;76456.13;5052816;28;19921;-67
2023/03/26 06:39:03;;;;;;;;;;;;;;;-142.75;100.00;76444.31;5053271;28;19919;-67
2023/03/26 06:41:28;;;;;;;;;;;;;;;-142.75;100.00;76438.41;5053125;28;19916;-67
2023/03/26 06:43:54;;;;;;;;;;;;;;;-142.75;100.00;76420.69;5053217;28;19919;-67
2023/03/26 06:46:20;;;;;;;;;;;;;;;-142.75;100.00;76414.78;5053267;28;20292;-67
2023/03/26 06:48:45;;;;;;;;;;;;;;;-142.75;100.00;76410.84;5053284;28;19912;-67
2023/03/26 06:51:10;;;;;;;;;;;;;;;-142.75;100.00;76401.00;5053307;28;20411;-67
2023/03/26 06:53:35;;;;;;;;;;;;;;;-142.75;100.00;76393.13;5052864;28;20280;-66
2023/03/26 06:56:02;;;;;;;;;;;;;;;-142.75;100.00;76393.13;5053338;28;20376;-67
2023/03/26 06:58:27;;;;;;;;;;;;;;;-142.75;100.00;76387.22;5053047;28;20019;-67
2023/03/26 07:00:53;;;;;;;;;;;;;;;-142.75;100.00;76389.19;5035219;28;20007;-67
2023/03/26 07:03:18;;;;;;;;;;;;;;;-142.75;100.00;76389.19;5053143;28;19913;-67
2023/03/26 07:05:43;;;;;;;;;;;;;;;-142.75;100.00;76379.34;5052961;28;19944;-67
2023/03/26 07:08:09;;;;;;;;;;;;;;;-142.75;100.00;76367.53;5052918;28;19913;-67
2023/03/26 07:10:34;;;;;;;;;;;;;;;-142.75;100.00;76357.69;5053014;28;20008;-66
2023/03/26 07:12:59;;;;;;;;;;;;;;;-142.75;100.00;76361.63;5052834;28;19920;-67
2023/03/26 07:15:26;;;;;;;;;;;;;;;-142.75;100.00;76377.38;5052459;28;19913;-67
2023/03/26 07:17:51;;;;;;;;;;;;;;;-142.75;100.00;76383.28;5052703;28;19912;-67
2023/03/26 07:20:16;;;;;;;;;;;;;;;-142.75;100.00;76397.06;5052937;28;19913;-67
2023/03/26 07:22:41;;;;;;;;;;;;;;;-142.75;100.00;76424.63;5052682;28;19913;-67
2023/03/26 07:25:07;;;;;;;;;;;;;;;-142.75;100.00;76412.81;5052574;28;19917;-67
2023/03/26 07:27:40;;;;;;;;;;;;;;;-142.75;100.00;76416.75;5052723;28;20272;-67
2023/03/26 07:30:05;;;;;;;;;;;;;;;-142.75;100.00;76412.81;5052802;28;19959;-67
2023/03/26 07:32:51;;;;;;;;;;;;;;;-142.75;100.00;76397.06;5034769;28;19921;-67
2023/03/26 07:35:27;;;;;;;;;;;;;;;-142.75;100.00;76361.63;5052295;28;19916;-67
2023/03/26 07:37:58;;;;;;;;;;;;;;;-142.75;100.00;76365.56;5052506;28;19913;-67
2023/03/26 07:40:35;;;;;;;;;;;;;;;-142.75;100.00;76355.72;5034679;28;19913;-67
2023/03/26 07:43:04;;;;;;;;;;;;;;;-142.75;100.00;76355.72;5052484;28;20438;-67
2023/03/26 07:45:38;;;;;;;;;;;;;;;-142.75;100.00;76369.50;5052203;28;19916;-67
2023/03/26 07:48:11;;;;;;;;;;;;;;;-142.75;100.00;76361.63;5052450;28;20445;-67
2023/03/26 07:50:37;;;;;;;;;;;;;;;-142.75;100.00;76389.19;5052439;28;20434;-67
2023/03/26 07:53:02;;;;;;;;;;;;;;;-142.75;100.00;76373.44;5052228;28;19921;-68
2023/03/26 07:55:27;;;;;;;;;;;;;;;-142.75;100.00;76402.97;5052101;28;20265;-68
2023/03/26 07:57:53;;;;;;;;;;;;;;;-142.75;100.00;76397.06;5052247;28;19920;-68
2023/03/26 08:00:40;;;;;;;;;;;;;;;-142.75;100.00;76406.91;5052275;28;19913;-68
2023/03/26 08:03:14;;;;;;;;;;;;;;;-142.75;100.00;76402.97;5052008;28;19917;-65
2023/03/26 08:05:50;;;;;;;;;;;;;;;-142.75;100.00;76408.88;5051925;28;20392;-65
2023/03/26 08:08:35;;;;;;;;;;;;;;;-142.75;100.00;76424.63;5052255;28;19956;-65
2023/03/26 08:11:10;;;;;;;;;;;;;;;-142.75;100.00;76414.78;5052050;28;20330;-64
2023/03/26 08:13:51;;;;;;;;;;;;;;;-142.75;100.00;76410.84;5051877;28;19924;-65
2023/03/26 08:16:22;;;;;;;;;;;;;;;-142.75;100.00;76408.88;5052034;28;19920;-65
2023/03/26 08:18:49;;;;;;;;;;;;;;;-142.75;100.00;76397.06;5052043;28;19913;-67
2023/03/26 08:21:17;;;;;;;;;;;;;;;-142.75;100.00;76381.31;5051806;28;19913;-67
2023/03/26 08:23:59;;;;;;;;;;;;;;;-142.75;100.00;76369.50;5051654;28;20371;-67
2023/03/26 08:26:29;;;;;;;;;;;;;;;-142.75;100.00;76361.63;5034455;28;20295;-68
2023/03/26 08:28:55;;;;;;;;;;;;;;;-142.75;100.00;76361.63;5054148;28;19912;-68
2023/03/26 08:31:26;;;;;;;;;;;;;;;-142.75;100.00;76349.81;5055825;28;19935;-68
2023/03/26 08:33:51;;;;;;;;;;;;;;;-142.75;100.00;76355.72;5055458;28;20003;-67
2023/03/26 08:36:16;;;;;;;;;;;;;;;-142.75;100.00;76330.16;5055280;28;19924;-67
2023/03/26 08:38:41;;;;;;;;;;;;;;;-142.75;100.00;76306.53;5055743;28;19919;-67
2023/03/26 08:41:06;;;;;;;;;;;;;;;-142.75;100.00;76300.63;5055486;28;19916;-68
2023/03/26 08:43:41;;;;;;;;;;;;;;;-142.75;100.00;76278.97;5037055;28;19955;-66
2023/03/26 08:46:25;;;;;;;;;;;;;;;-142.75;100.00;76271.09;5055053;28;19963;-66
2023/03/26 08:48:53;;;;;;;;;;;;;;;-142.75;100.00;76269.13;5053073;28;19913;-68
2023/03/26 08:51:37;;;;;;;;;;;;;;;-142.75;100.00;76278.97;5055378;28;19920;-67
2023/03/26 08:54:20;;;;;;;;;;;;;;;-142.75;100.00;76253.38;5055227;28;19913;-67
2023/03/26 08:56:52;;;;;;;;;;;;;;;-142.75;100.00;76261.25;5055522;28;19912;-67
2023/03/26 08:59:23;;;;;;;;;;;;;;;-142.75;100.00;76267.16;5055297;28;20491;-67
2023/03/26 09:01:51;;;;;;;;;;;;;;;-142.75;100.00;76282.91;5055274;28;19917;-67
2023/03/26 09:04:19;;;;;;;;;;;;;;;-142.75;100.00;76271.09;5055188;28;19917;-67
2023/03/26 09:06:59;;;;;;;;;;;;;;;-142.75;100.00;76292.75;5054810;28;19917;-67
2023/03/26 09:09:25;;;;;;;;;;;;;;;-142.75;100.00;76267.16;5053060;28;19978;-67
2023/03/26 09:12:09;;;;;;;;;;;;;;;-142.75;100.00;76273.06;5054330;28;20330;-66
2023/03/26 09:14:53;;;;;;;;;;;;;;;-142.75;100.00;76275.03;5052666;28;19917;-67
2023/03/26 09:17:48;;;;;;;;;;;;;;;-142.75;100.00;76261.25;5052863;28;20379;-67
2023/03/26 09:20:25;;;;;;;;;;;;;;;-142.75;100.00;76286.84;4931563;28;19918;-67
2023/03/26 09:22:50;;;;;;;;;;;;;;;-142.75;100.00;76269.13;5035188;28;19920;-67
2023/03/26 09:25:27;;;;;;;;;;;;;;;-142.75;100.00;76261.25;5017645;28;19917;-67
2023/03/26 09:28:01;;;;;;;;;;;;;;;-142.75;100.00;76271.09;5054154;28;19994;-67
2023/03/26 09:30:45;;;;;;;;;;;;;;;-142.75;100.00;76277.00;5054160;28;19920;-67
2023/03/26 09:33:11;;;;;;;;;;;;;;;-142.75;100.00;76282.91;5053260;28;19913;-66
2023/03/26 09:35:39;;;;;;;;;;;;;;;-142.75;100.00;76290.78;5054190;28;19920;-67
2023/03/26 09:38:16;;;;;;;;;;;;;;;-142.75;100.00;76306.53;5054498;28;19947;-67
2023/03/26 09:40:42;;;;;;;;;;;;;;;-142.75;100.00;76308.50;5053722;28;19924;-66
2023/03/26 09:43:26;;;;;;;;;;;;;;;-142.75;100.00;76296.69;5054255;28;19924;-67
2023/03/26 09:46:01;;;;;;;;;;;;;;;-142.75;100.00;76300.63;5060689;28;19921;-67
2023/03/26 09:48:59;;;;;;;;;;;;;;;-142.75;100.00;76296.69;5058756;28;19916;-66
2023/03/26 09:51:50;;;;;;;;;;;;;;;-142.75;100.00;76294.72;5009931;28;19956;-68
2023/03/26 09:54:16;;;;;;;;;;;;;;;-142.75;100.00;76298.66;5050194;28;20384;-67
2023/03/26 09:56:42;;;;;;;;;;;;;;;-142.75;100.00;76267.16;5054551;28;19919;-67
2023/03/26 09:59:19;;;;;;;;;;;;;;;-142.75;100.00;76269.13;5054412;28;19913;-67
2023/03/26 10:01:47;;;;;;;;;;;;;;;-142.75;100.00;76269.13;5054246;28;19920;-67
2023/03/26 10:04:19;;;;;;;;;;;;;;;-142.75;100.00;76280.94;5036152;28;20004;-67
2023/03/26 10:06:50;;;;;;;;;;;;;;;-142.75;100.00;76294.72;5054217;28;20300;-67
2023/03/26 10:09:28;;;;;;;;;;;;;;;-142.75;100.00;76326.22;5035846;28;20436;-66
2023/03/26 10:12:11;;;;;;;;;;;;;;;-142.75;100.00;76310.47;5053629;28;20442;-67
2023/03/26 10:14:55;;;;;;;;;;;;;;;-142.75;100.00;76310.47;5053316;28;19932;-67
2023/03/26 10:17:39;;;;;;;;;;;;;;;-142.75;100.00;76298.66;5053367;28;19916;-67
2023/03/26 10:20:16;;;;;;;;;;;;;;;-142.75;100.00;76304.56;5016467;28;20282;-67
2023/03/26 10:22:54;;;;;;;;;;;;;;;-142.75;100.00;76300.63;5015967;28;19913;-67
2023/03/26 10:25:37;;;;;;;;;;;;;;;-142.75;100.00;76330.16;5033760;28;19917;-67
2023/03/26 10:28:24;;;;;;;;;;;;;;;-142.75;100.00;76363.59;5037977;28;19920;-67
2023/03/26 10:30:57;;;;;;;;;;;;;;;-142.75;100.00;76393.13;5060108;28;19923;-67
2023/03/26 10:33:22;;;;;;;;;;;;;;;-142.75;100.00;76408.88;5062950;28;19955;-68
2023/03/26 10:35:51;;;;;;;;;;;;;;;-142.75;100.00;76428.56;5051189;28;20619;-66
2023/03/26 10:38:28;;;;;;;;;;;;;;;-142.75;100.00;76410.84;5053226;28;20039;-66
2023/03/26 10:41:08;;;;;;;;;;;;;;;-142.75;100.00;76397.06;5053311;28;19931;-67
2023/03/26 10:43:39;;;;;;;;;;;;;;;-142.75;100.00;76379.34;5031261;28;20007;-66
2023/03/26 10:46:24;;;;;;;;;;;;;;;-142.75;100.00;76377.38;5035221;28;19923;-67
2023/03/26 10:48:49;;;;;;;;;;;;;;;-142.75;100.00;76436.44;5053569;28;19917;-67
2023/03/26 10:51:24;;;;;;;;;;;;;;;-142.75;100.00;76432.50;5042278;28;19920;-67
2023/03/26 10:53:55;;;;;;;;;;;;;;;-142.75;100.00;76418.72;5060069;28;19913;-67
2023/03/26 10:56:33;;;;;;;;;;;;;;;-142.75;100.00;76404.94;5061698;28;19946;-67
2023/03/26 10:59:02;;;;;;;;;;;;;;;-142.75;100.00;76408.88;5062010;28;19951;-67
2023/03/26 11:01:46;;;;;;;;;;;;;;;-142.75;100.00;76416.75;5059633;28;19913;-67
2023/03/26 11:04:32;;;;;;;;;;;;;;;-142.75;100.00;76401.00;5032766;28;19953;-67
2023/03/26 11:07:06;;;;;;;;;;;;;;;-142.75;100.00;76428.56;5033273;28;19913;-67
2023/03/26 11:09:43;;;;;;;;;;;;;;;-142.75;100.00;76414.78;5015388;28;19963;-67
2023/03/26 11:12:17;;;;;;;;;;;;;;;-142.75;100.00;76414.78;5032958;28;20380;-67
2023/03/26 11:15:01;;;;;;;;;;;;;;;-142.75;100.00;76424.63;5015059;28;20340;-67
2023/03/26 11:17:26;;;;;;;;;;;;;;;-142.75;100.00;76430.53;5033011;28;19913;-67
2023/03/26 11:20:02;;;;;;;;;;;;;;;-142.75;100.00;76452.19;5032798;28;20278;-67
2023/03/26 11:22:27;;;;;;;;;;;;;;;-142.75;100.00;76420.69;5031580;28;20419;-67
2023/03/26 11:25:03;;;;;;;;;;;;;;;-142.75;100.00;76418.72;5014975;28;19925;-67
2023/03/26 11:27:41;;;;;;;;;;;;;;;-142.75;100.00;76418.72;5033061;28;20417;-67
2023/03/26 11:30:33;;;;;;;;;;;;;;;-142.75;100.00;76452.19;5032802;28;19920;-67
2023/03/26 11:33:04;;;;;;;;;;;;;;;-142.75;100.00;76444.31;5002056;28;19917;-67
2023/03/26 11:35:33;;;;;;;;;;;;;;;-142.75;100.00;76467.94;5032346;28;20354;-67
2023/03/26 11:38:02;;;;;;;;;;;;;;;-142.75;100.00;76469.91;5032697;28;19939;-67
2023/03/26 11:40:31;;;;;;;;;;;;;;;-142.75;100.00;76497.47;5032683;28;20027;-67
2023/03/26 11:43:01;;;;;;;;;;;;;;;-142.75;100.00;76483.69;5032561;28;19914;-67
2023/03/26 11:45:29;;;;;;;;;;;;;;;-142.75;100.00;76471.88;5032273;28;20404;-67
2023/03/26 11:48:08;;;;;;;;;;;;;;;-142.75;100.00;76495.50;5031115;28;19952;-66
2023/03/26 11:50:35;;;;;;;;;;;;;;;-142.75;100.00;76448.25;5031090;28;19923;-66
2023/03/26 11:53:13;;;;;;;;;;;;;;;-142.75;100.00;76440.38;5024218;28;19917;-66
2023/03/26 11:56:01;;;;;;;;;;;;;;;-142.75;100.00;76432.50;5052132;28;19966;-67
2023/03/26 11:58:30;;;;;;;;;;;;;;;-142.75;100.00;76450.22;5051859;28;19920;-66
2023/03/26 12:00:55;;;;;;;;;;;;;;;-142.75;100.00;76467.94;5056983;28;19917;-67
2023/03/26 12:03:20;;;;;;;;;;;;;;;-142.75;100.00;76483.69;5062550;28;19917;-67
2023/03/26 12:05:47;;;;;;;;;;;;;;;-142.75;100.00;76487.63;5043110;28;20439;-68
2023/03/26 12:08:28;;;;;;;;;;;;;;;-142.75;100.00;76495.50;5063436;28;19917;-66
2023/03/26 12:11:00;;;;;;;;;;;;;;;-142.75;100.00;76521.09;5061949;28;19917;-65
2023/03/26 12:13:34;;;;;;;;;;;;;;;-142.75;100.00;76550.59;5033695;28;19924;-65
2023/03/26 12:16:03;;;;;;;;;;;;;;;-142.75;100.00;76536.84;5049801;28;19913;-65
2023/03/26 12:18:28;;;;;;;;;;;;;;;-142.75;100.00;76536.84;5058860;28;19924;-67
2023/03/26 12:21:09;;;;;;;;;;;;;;;-142.75;100.00;76566.34;5061292;28;19913;-67
2023/03/26 12:23:36;;;;;;;;;;;;;;;-142.75;100.00;76532.88;5042175;28;19913;-67
2023/03/26 12:26:13;;;;;;;;;;;;;;;-142.75;100.00;76521.09;5057602;28;20296;-67
2023/03/26 12:28:42;;;;;;;;;;;;;;;-142.75;100.00;76538.78;5059557;28;19912;-67
2023/03/26 12:31:10;;;;;;;;;;;;;;;-142.75;100.00;76527.00;5061911;28;19962;-67